Time;durP1;ratioP1;P1;durP2;ratioP2;P2;SDS_P1;SDS_P2;PMS_P1;PMS_P2;Temp;Humidity;BMP_temperature;BMP_pressure;BME280_temperature;BME280_humidity;BME280_pressure;Samples;Min_cycle;Max_cycle;Signal;HPM_P1;HPM_P2
2022/03/02 00:00:12;;;;;;;19.00;12.73;;;1.40;53.10;;;;;;6196592;23;20245;-85
2022/03/02 00:02:43;;;;;;;19.67;12.37;;;1.50;51.50;;;;;;6174247;23;20178;-87
2022/03/02 00:05:13;;;;;;;12.97;8.80;;;1.50;50.80;;;;;;6202888;23;20232;-85
2022/03/02 00:07:40;;;;;;;10.13;6.87;;;1.30;47.80;;;;;;6199834;23;20173;-85
2022/03/02 00:10:09;;;;;;;17.83;11.77;;;0.80;49.00;;;;;;6197593;23;20669;-86
2022/03/02 00:12:36;;;;;;;15.60;10.60;;;0.50;56.90;;;;;;6197927;23;20177;-85
2022/03/02 00:15:04;;;;;;;16.90;10.33;;;0.90;54.70;;;;;;6168852;23;20260;-85
2022/03/02 00:17:32;;;;;;;16.50;11.20;;;1.10;52.30;;;;;;6198025;23;20559;-86
2022/03/02 00:20:01;;;;;;;19.30;10.77;;;1.10;52.90;;;;;;6198878;23;20217;-86
2022/03/02 00:22:29;;;;;;;13.77;7.97;;;1.20;52.80;;;;;;6199263;23;20202;-85
2022/03/02 00:24:56;;;;;;;14.30;9.23;;;1.00;48.40;;;;;;6196337;23;20204;-86
2022/03/02 00:27:24;;;;;;;15.30;10.17;;;0.70;51.90;;;;;;6196953;23;20182;-87
2022/03/02 00:29:51;;;;;;;9.23;7.53;;;0.90;54.10;;;;;;6196199;23;20549;-86
2022/03/02 00:35:30;;;;;;;11.90;7.63;;;0.70;50.50;;;;;;5099589;27;20709;-86
2022/03/02 00:37:59;;;;;;;11.53;8.10;;;0.10;50.40;;;;;;5078817;28;20198;-85
2022/03/02 00:40:27;;;;;;;17.10;9.83;;;-0.30;56.90;;;;;;5073681;28;20244;-85
2022/03/02 00:43:04;;;;;;;13.73;9.10;;;0.10;61.20;;;;;;5072370;28;20207;-85
2022/03/02 00:45:40;;;;;;;10.80;8.00;;;0.50;58.70;;;;;;5090815;28;20228;-85
2022/03/02 00:48:08;;;;;;;12.50;7.80;;;0.50;53.20;;;;;;5074612;28;20275;-86
2022/03/02 00:50:38;;;;;;;10.97;7.73;;;0.20;54.80;;;;;;5066823;28;20312;-85
2022/03/02 00:53:07;;;;;;;13.27;8.10;;;0.00;55.20;;;;;;5069354;28;20654;-85
2022/03/02 00:55:36;;;;;;;12.40;8.57;;;0.20;60.10;;;;;;5074696;28;20578;-86
2022/03/02 00:58:04;;;;;;;12.77;8.50;;;0.50;59.00;;;;;;5076013;28;20235;-86
2022/03/02 01:00:32;;;;;;;15.60;8.90;;;0.60;56.80;;;;;;5069033;28;20324;-85
2022/03/02 01:02:59;;;;;;;11.83;7.87;;;0.70;58.50;;;;;;5077879;28;20209;-86
2022/03/02 01:05:26;;;;;;;12.03;7.70;;;0.80;57.20;;;;;;5074980;28;20257;-85
2022/03/02 01:07:55;;;;;;;11.70;7.53;;;0.80;56.50;;;;;;5078030;28;20242;-87
2022/03/02 01:10:23;;;;;;;13.23;7.80;;;0.80;55.60;;;;;;5075312;28;20231;-88
2022/03/02 01:12:51;;;;;;;12.83;7.60;;;0.80;54.80;;;;;;5078521;28;20769;-86
2022/03/02 01:15:18;;;;;;;12.50;7.30;;;0.80;52.60;;;;;;5063043;28;20284;-86
2022/03/02 01:17:45;;;;;;;11.33;7.73;;;0.20;52.00;;;;;;5072981;28;20195;-85
2022/03/02 01:20:13;;;;;;;13.27;7.60;;;-0.40;54.60;;;;;;5074115;28;20240;-85
2022/03/02 01:22:40;;;;;;;11.33;7.70;;;-0.70;63.70;;;;;;5070376;28;20280;-85
2022/03/02 01:25:10;;;;;;;12.70;7.50;;;-0.40;60.30;;;;;;5065478;28;20231;-87
2022/03/02 01:27:39;;;;;;;11.07;7.33;;;-0.10;60.30;;;;;;5065289;28;20204;-87
2022/03/02 01:30:09;;;;;;;12.27;7.97;;;-0.30;56.30;;;;;;5063852;28;20275;-87
2022/03/02 01:32:36;;;;;;;13.50;8.07;;;-0.70;57.40;;;;;;5058653;28;20202;-87
2022/03/02 01:35:04;;;;;;;12.40;7.60;;;-1.00;60.30;;;;;;5046017;28;20219;-87
2022/03/02 01:37:31;;;;;;;11.70;7.33;;;-1.20;63.20;;;;;;5053306;28;20201;-90
2022/03/02 01:43:18;;;;;;;10.83;7.57;;;-1.20;63.20;;;;;;5045441;28;20212;-87
2022/03/02 01:45:46;;;;;;;13.70;7.90;;;-1.30;64.90;;;;;;5040816;28;20226;-87
2022/03/02 02:22:53;;;;;;;13.03;7.27;;;-0.10;64.40;;;;;;4894783;29;20230;-87
2022/03/02 02:25:57;;;;;;;11.90;7.37;;;-0.10;57.70;;;;;;4843797;28;20347;-85
2022/03/02 02:28:28;;;;;;;13.73;7.23;;;-0.70;60.60;;;;;;5003696;28;20223;-87
2022/03/02 02:31:01;;;;;;;11.40;7.43;;;-0.60;63.80;;;;;;5063542;28;20232;-86
2022/03/02 02:36:20;;;;;;;12.67;7.77;;;-0.90;69.80;;;;;;5083627;28;20229;-86
2022/03/02 02:38:47;;;;;;;14.03;7.77;;;-0.80;64.40;;;;;;5086447;28;20200;-86
2022/03/02 02:44:57;;;;;;;10.10;6.77;;;-0.40;64.00;;;;;;4990028;28;20243;-87
2022/03/02 02:47:24;;;;;;;14.77;6.83;;;-0.40;64.10;;;;;;5070943;28;20270;-87
2022/03/02 02:49:51;;;;;;;10.10;6.83;;;-0.10;64.40;;;;;;5085054;28;20235;-88
2022/03/02 02:52:25;;;;;;;10.70;7.20;;;0.10;64.60;;;;;;5066027;28;20189;-88
2022/03/02 02:54:52;;;;;;;11.27;7.00;;;0.10;58.20;;;;;;5086391;28;20252;-86
2022/03/02 02:57:20;;;;;;;10.77;6.93;;;-0.20;59.20;;;;;;5083914;28;20236;-87
2022/03/02 02:59:50;;;;;;;10.67;7.00;;;-0.30;64.20;;;;;;5085184;28;20288;-87
2022/03/02 03:02:42;;;;;;;10.83;7.40;;;-0.30;64.20;;;;;;5086686;28;20295;-86
2022/03/02 03:09:07;;;;;;;11.43;7.00;;;-0.20;58.50;;;;;;5036789;28;20220;-86
2022/03/02 03:15:34;;;;;;;11.00;6.90;;;-0.40;64.00;;;;;;5042787;28;20228;-86
2022/03/02 03:18:13;;;;;;;11.53;7.43;;;-0.30;64.10;;;;;;5083253;28;20212;-86
2022/03/02 03:24:12;;;;;;;9.93;6.77;;;-0.80;63.60;;;;;;5075408;28;20205;-87
2022/03/02 03:26:47;;;;;;;12.63;7.10;;;-0.50;64.90;;;;;;5073880;28;20260;-87
2022/03/02 03:29:14;;;;;;;10.60;7.40;;;-0.30;64.10;;;;;;5072164;28;20196;-86
2022/03/02 03:31:43;;;;;;;9.03;6.43;;;-0.30;62.00;;;;;;5085350;28;20280;-87
2022/03/02 03:34:21;;;;;;;10.03;7.30;;;-0.80;62.20;;;;;;5086150;28;20312;-87
2022/03/02 03:36:49;;;;;;;12.30;7.20;;;-1.30;63.20;;;;;;5082012;28;20212;-87
2022/03/02 03:39:16;;;;;;;11.03;7.23;;;-1.70;66.10;;;;;;5080784;28;20208;-87
2022/03/02 03:41:59;;;;;;;9.10;6.80;;;-2.00;69.50;;;;;;5085705;28;20228;-87
2022/03/02 03:44:26;;;;;;;10.70;6.50;;;-2.00;74.60;;;;;;5076762;28;20290;-85
2022/03/02 03:46:54;;;;;;;12.00;6.73;;;-1.40;75.80;;;;;;5079530;28;20190;-86
2022/03/02 03:49:22;;;;;;;11.33;6.67;;;-1.30;63.20;;;;;;5086185;28;20239;-86
2022/03/02 03:51:50;;;;;;;8.50;6.90;;;-1.30;73.50;;;;;;5082431;28;20340;-86
2022/03/02 03:54:17;;;;;;;12.50;7.03;;;-1.30;68.30;;;;;;5071564;28;20259;-86
2022/03/02 03:56:44;;;;;;;10.77;7.00;;;-1.40;71.50;;;;;;5061621;28;20197;-86
2022/03/02 03:59:11;;;;;;;9.53;7.00;;;-1.10;70.40;;;;;;5075258;28;20291;-85
2022/03/02 04:01:38;;;;;;;9.83;6.60;;;-1.10;63.30;;;;;;5071804;28;20198;-85
2022/03/02 04:04:07;;;;;;;11.23;6.83;;;-1.40;68.10;;;;;;5068465;28;20205;-86
2022/03/02 04:06:36;;;;;;;8.53;5.90;;;-1.30;74.30;;;;;;5075251;28;20205;-88
2022/03/02 04:09:04;;;;;;;12.10;7.03;;;-0.80;69.20;;;;;;5083537;28;20283;-86
2022/03/02 04:11:31;;;;;;;10.00;6.40;;;-0.60;64.00;;;;;;5083268;28;20205;-86
2022/03/02 04:13:58;;;;;;;9.70;6.20;;;-0.70;59.50;;;;;;5084654;28;20212;-86
2022/03/02 04:16:26;;;;;;;9.50;6.47;;;-1.10;63.30;;;;;;5081585;28;20248;-87
2022/03/02 04:18:53;;;;;;;9.97;6.57;;;-1.40;63.00;;;;;;5061950;28;20209;-86
2022/03/02 04:21:22;;;;;;;10.20;6.73;;;-1.50;65.30;;;;;;5080060;28;20275;-86
2022/03/02 04:23:51;;;;;;;11.00;7.23;;;-1.80;65.60;;;;;;5082542;28;20653;-86
2022/03/02 04:26:18;;;;;;;10.17;7.10;;;-2.00;69.60;;;;;;5075050;28;20572;-84
2022/03/02 04:28:45;;;;;;;12.83;8.00;;;-1.50;74.70;;;;;;5084605;28;20205;-86
2022/03/02 04:31:12;;;;;;;17.60;10.13;;;-1.00;70.20;;;;;;5074606;28;20741;-86
2022/03/02 04:33:40;;;;;;;19.47;9.63;;;-0.90;67.00;;;;;;5082025;28;20348;-86
2022/03/02 04:36:08;;;;;;;20.73;9.10;;;-0.70;63.70;;;;;;5081780;28;20225;-86
2022/03/02 04:38:35;;;;;;;11.73;8.20;;;-0.60;63.80;;;;;;5082604;28;20201;-85
2022/03/02 04:41:07;;;;;;;13.67;7.53;;;-0.60;65.30;;;;;;5084089;28;20251;-86
2022/03/02 04:43:34;;;;;;;10.47;7.20;;;-0.40;64.00;;;;;;5083106;28;20648;-86
2022/03/02 04:46:02;;;;;;;9.87;6.83;;;-0.40;60.90;;;;;;5076677;28;20240;-86
2022/03/02 04:48:39;;;;;;;11.83;6.87;;;-0.30;59.90;;;;;;5077172;28;20217;-86
2022/03/02 04:51:07;;;;;;;10.43;6.90;;;-0.40;64.00;;;;;;5071795;28;20319;-87
2022/03/02 04:53:34;;;;;;;10.63;6.80;;;-0.40;63.60;;;;;;5085590;28;20269;-87
2022/03/02 04:56:03;;;;;;;10.33;6.50;;;-0.70;59.50;;;;;;5084818;28;20319;-86
2022/03/02 05:01:58;;;;;;;9.23;6.47;;;-1.30;64.30;;;;;;5073433;28;20273;-85
2022/03/02 05:04:43;;;;;;;10.13;6.67;;;-1.70;63.70;;;;;;5082133;28;20252;-85
2022/03/02 05:07:10;;;;;;;10.00;6.37;;;-1.40;71.60;;;;;;5069333;28;20273;-86
2022/03/02 05:09:37;;;;;;;10.83;6.33;;;-1.30;63.20;;;;;;5082652;28;20319;-85
2022/03/02 05:12:12;;;;;;;8.40;6.17;;;-1.30;69.30;;;;;;5071575;28;20207;-85
2022/03/02 05:14:39;;;;;;;11.57;6.40;;;-0.80;64.90;;;;;;5083233;28;20300;-84
2022/03/02 05:17:06;;;;;;;9.80;6.20;;;-1.00;59.20;;;;;;5083208;28;20193;-85
2022/03/02 05:19:34;;;;;;;7.50;5.70;;;-1.20;63.30;;;;;;5080418;28;20225;-85
2022/03/02 05:22:14;;;;;;;8.50;6.20;;;-1.10;66.50;;;;;;5084197;28;20201;-85
2022/03/02 05:24:42;;;;;;;9.60;5.23;;;-1.10;63.30;;;;;;5087038;28;20252;-84
2022/03/02 05:36:28;;;;;;;9.57;6.37;;;-1.60;62.80;;;;;;5052770;28;20245;-88
2022/03/02 05:38:55;;;;;;;10.00;6.53;;;-1.90;64.10;;;;;;5084510;28;20197;-84
2022/03/02 05:44:50;;;;;;;10.20;6.13;;;-2.10;68.30;;;;;;5074082;28;20202;-87
2022/03/02 05:47:27;;;;;;;9.37;6.10;;;-2.00;69.00;;;;;;5084311;28;20201;-86
2022/03/02 05:50:05;;;;;;;10.20;6.80;;;-1.90;75.80;;;;;;5076242;28;20673;-86
2022/03/02 05:52:36;;;;;;;9.43;5.43;;;-1.10;73.80;;;;;;5083882;28;20311;-86
2022/03/02 05:55:05;;;;;;;10.57;5.97;;;-1.00;67.30;;;;;;5070386;28;20229;-86
2022/03/02 05:57:32;;;;;;;8.67;5.87;;;-1.00;69.80;;;;;;5085380;28;20221;-86
2022/03/02 05:59:59;;;;;;;8.90;5.67;;;-0.80;64.70;;;;;;5085454;28;20231;-86
2022/03/02 06:02:30;;;;;;;9.93;5.67;;;-0.50;68.90;;;;;;5085628;28;20280;-86
2022/03/02 06:04:57;;;;;;;7.93;5.30;;;-0.20;64.30;;;;;;5085951;28;20236;-87
2022/03/02 06:07:24;;;;;;;8.83;6.40;;;-0.10;62.60;;;;;;5094347;28;20181;-87
2022/03/02 06:09:52;;;;;;;11.73;5.87;;;-0.30;58.80;;;;;;5095999;28;20217;-86
2022/03/02 06:12:37;;;;;;;7.70;5.57;;;0.00;64.40;;;;;;5097725;28;20184;-86
2022/03/02 06:15:05;;;;;;;9.47;5.97;;;0.20;62.90;;;;;;5089595;28;20229;-85
2022/03/02 06:17:35;;;;;;;9.87;5.70;;;0.30;58.10;;;;;;5082164;28;20213;-86
2022/03/02 06:20:02;;;;;;;10.53;6.13;;;0.30;60.70;;;;;;5075507;28;20328;-87
2022/03/02 06:22:30;;;;;;;8.70;5.70;;;0.40;58.80;;;;;;5069143;28;20265;-86
2022/03/02 06:24:58;;;;;;;11.80;5.63;;;0.40;55.10;;;;;;5067740;28;20225;-85
2022/03/02 06:27:26;;;;;;;13.87;6.47;;;0.10;57.30;;;;;;5075607;28;20280;-86
2022/03/02 06:29:53;;;;;;;11.73;5.93;;;-0.20;55.40;;;;;;5073897;28;20597;-86
2022/03/02 06:32:20;;;;;;;11.07;6.00;;;-0.40;58.20;;;;;;5069569;28;20197;-86
2022/03/02 06:34:49;;;;;;;8.33;5.33;;;-0.40;58.10;;;;;;5073061;28;20241;-86
2022/03/02 06:37:16;;;;;;;9.13;5.83;;;-0.10;64.40;;;;;;5079555;28;20293;-86
2022/03/02 06:39:44;;;;;;;10.03;6.27;;;0.10;58.90;;;;;;5071393;28;20735;-87
2022/03/02 06:42:18;;;;;;;9.47;6.17;;;0.20;58.40;;;;;;5079860;28;20292;-85
2022/03/02 06:44:54;;;;;;;9.70;6.27;;;0.20;57.50;;;;;;5074225;28;20310;-86
2022/03/02 06:47:26;;;;;;;10.43;5.93;;;0.00;56.50;;;;;;5078281;28;20205;-85
2022/03/02 06:50:06;;;;;;;13.77;6.30;;;0.00;58.40;;;;;;5085943;28;20252;-86
2022/03/02 06:52:36;;;;;;;12.30;6.87;;;0.20;64.70;;;;;;5078546;28;20203;-86
2022/03/02 06:55:07;;;;;;;10.80;6.87;;;0.20;57.40;;;;;;5077351;28;20243;-86
2022/03/02 06:57:34;;;;;;;9.33;6.00;;;0.10;60.00;;;;;;5076206;28;20269;-86
2022/03/02 07:00:06;;;;;;;11.07;6.20;;;0.10;57.60;;;;;;5069693;28;20233;-86
2022/03/02 07:02:40;;;;;;;12.83;6.43;;;0.00;56.80;;;;;;5077295;28;20205;-87
2022/03/02 07:05:10;;;;;;;11.90;6.10;;;-0.20;56.80;;;;;;5077581;28;20247;-87
2022/03/02 07:07:38;;;;;;;10.23;5.63;;;-0.20;61.90;;;;;;5064762;28;20568;-87
2022/03/02 07:10:06;;;;;;;9.67;5.50;;;0.20;64.70;;;;;;5073166;28;20228;-85
2022/03/02 07:12:33;;;;;;;13.43;5.90;;;0.60;57.90;;;;;;5079481;28;20194;-86
2022/03/02 07:15:00;;;;;;;11.83;6.60;;;0.90;55.60;;;;;;5073258;28;20251;-85
2022/03/02 07:17:32;;;;;;;9.53;5.90;;;0.90;50.60;;;;;;5069466;28;20215;-85
2022/03/02 07:19:59;;;;;;;8.77;6.27;;;0.80;50.80;;;;;;5077587;28;20228;-87
2022/03/02 07:22:33;;;;;;;8.57;6.03;;;0.90;52.00;;;;;;5068784;28;20209;-85
2022/03/02 07:25:04;;;;;;;8.60;5.30;;;1.10;52.00;;;;;;5073534;28;20262;-86
2022/03/02 07:27:32;;;;;;;10.90;5.80;;;1.30;53.40;;;;;;5079286;28;20197;-87
2022/03/02 07:30:00;;;;;;;9.23;5.73;;;1.50;48.70;;;;;;5067118;28;20229;-86
2022/03/02 07:32:35;;;;;;;8.87;5.43;;;1.60;52.80;;;;;;5072715;28;20209;-85
2022/03/02 07:35:04;;;;;;;8.97;5.00;;;1.90;50.40;;;;;;5064167;28;20296;-85
2022/03/02 07:37:33;;;;;;;11.27;5.47;;;2.10;44.30;;;;;;5069739;28;20280;-85
2022/03/02 07:40:00;;;;;;;7.27;4.73;;;2.10;46.50;;;;;;5074496;28;20232;-86
2022/03/02 07:42:27;;;;;;;10.47;5.60;;;2.30;45.80;;;;;;5062042;28;20201;-86
2022/03/02 07:44:56;;;;;;;8.40;5.43;;;2.50;42.30;;;;;;5066435;28;20226;-85
2022/03/02 07:47:24;;;;;;;16.17;5.80;;;2.70;42.40;;;;;;5077313;28;20729;-85
2022/03/02 07:49:52;;;;;;;12.70;6.00;;;2.80;40.80;;;;;;5073583;28;20227;-87
2022/03/02 07:52:25;;;;;;;9.77;5.53;;;3.10;44.40;;;;;;5080072;28;20192;-87
2022/03/02 07:54:58;;;;;;;11.60;5.93;;;3.50;38.50;;;;;;5074537;28;20236;-87
2022/03/02 07:57:26;;;;;;;9.57;6.03;;;3.90;39.10;;;;;;5078157;28;20308;-88
2022/03/02 08:00:03;;;;;;;12.03;5.50;;;4.20;34.40;;;;;;5076499;28;20228;-84
2022/03/02 08:02:33;;;;;;;7.43;5.27;;;4.30;33.70;;;;;;5072840;28;20789;-85
2022/03/02 08:05:04;;;;;;;9.10;6.47;;;4.30;35.00;;;;;;5066972;28;20220;-85
2022/03/02 08:07:31;;;;;;;9.27;5.70;;;4.20;33.30;;;;;;5066997;28;20212;-84
2022/03/02 08:10:03;;;;;;;9.50;6.00;;;4.00;32.90;;;;;;5076850;28;20287;-85
2022/03/02 08:12:30;;;;;;;8.40;5.70;;;3.80;34.80;;;;;;5074028;28;20203;-85
2022/03/02 08:14:58;;;;;;;14.67;6.17;;;3.90;36.80;;;;;;5076717;28;20227;-82
2022/03/02 08:17:25;;;;;;;11.87;5.57;;;4.20;34.20;;;;;;5077243;28;20271;-82
2022/03/02 08:19:52;;;;;;;12.73;5.53;;;4.20;32.40;;;;;;5066801;28;20307;-82
2022/03/02 08:22:22;;;;;;;10.27;4.90;;;4.30;31.70;;;;;;5071377;28;20205;-90
2022/03/02 08:24:55;;;;;;;6.37;4.57;;;4.40;31.30;;;;;;5072633;28;20283;-80
2022/03/02 08:27:24;;;;;;;8.97;4.83;;;4.50;30.90;;;;;;5067727;28;20193;-80
2022/03/02 08:29:56;;;;;;;9.10;4.80;;;4.50;32.70;;;;;;5069171;28;20229;-83
2022/03/02 08:32:24;;;;;;;9.47;5.37;;;4.60;32.50;;;;;;5076083;28;20251;-82
2022/03/02 08:34:52;;;;;;;12.63;5.37;;;4.70;30.10;;;;;;5081203;28;20228;-84
2022/03/02 08:37:20;;;;;;;12.47;5.40;;;4.50;30.60;;;;;;5085361;28;20229;-86
2022/03/02 08:39:48;;;;;;;12.07;5.23;;;4.40;30.00;;;;;;5076934;28;20244;-88
2022/03/02 08:42:15;;;;;;;13.73;5.27;;;4.40;30.60;;;;;;5078477;28;20192;-85
2022/03/02 08:44:46;;;;;;;8.50;5.13;;;4.40;31.20;;;;;;5083329;28;20243;-85
2022/03/02 08:47:23;;;;;;;10.30;4.57;;;4.90;28.70;;;;;;5077513;28;20196;-87
2022/03/02 08:49:51;;;;;;;8.80;4.77;;;5.30;28.80;;;;;;5074180;28;20236;-86
2022/03/02 08:52:25;;;;;;;7.37;4.87;;;5.60;27.10;;;;;;5067291;28;20204;-88
2022/03/02 08:54:53;;;;;;;7.53;5.47;;;5.60;25.40;;;;;;5074667;28;20228;-89
2022/03/02 08:57:21;;;;;;;8.82;5.25;;;5.60;26.20;;;;;;5077319;28;20236;-87
2022/03/02 08:59:53;;;;;;;7.03;5.30;;;5.80;27.10;;;;;;5074436;28;20220;-87
2022/03/02 09:02:27;;;;;;;9.63;5.43;;;6.20;24.20;;;;;;5073070;28;20208;-86
2022/03/02 09:04:59;;;;;;;8.88;5.40;;;7.00;25.80;;;;;;5072700;28;20221;-86
2022/03/02 09:07:29;;;;;;;6.78;5.35;;;7.50;23.20;;;;;;5073304;28;20204;-86
2022/03/02 09:10:01;;;;;;;10.35;5.60;;;7.60;20.90;;;;;;5074836;28;20300;-87
2022/03/02 09:12:32;;;;;;;6.88;5.20;;;7.70;21.30;;;;;;5081782;28;20212;-85
2022/03/02 09:15:09;;;;;;;8.95;5.75;;;8.00;20.90;;;;;;5076325;28;20230;-87
2022/03/02 09:17:36;;;;;;;8.82;5.95;;;8.50;20.00;;;;;;5078613;28;20696;-86
2022/03/02 09:20:09;;;;;;;9.90;6.93;;;8.80;19.30;;;;;;5085310;28;20227;-88
2022/03/02 09:22:45;;;;;;;12.38;6.90;;;9.10;19.80;;;;;;5083941;28;20217;-86
2022/03/02 09:25:23;;;;;;;10.18;7.68;;;9.70;19.50;;;;;;5080562;28;20289;-89
2022/03/02 09:27:53;;;;;;;14.02;7.82;;;9.70;18.30;;;;;;5083777;28;20202;-85
2022/03/02 09:30:49;;;;;;;15.93;8.50;;;9.70;19.00;;;;;;5093333;28;20248;-85
2022/03/02 09:34:03;;;;;;;8.95;7.22;;;9.20;18.90;;;;;;5074696;28;20233;-86
2022/03/02 09:49:59;;;;;;;10.35;7.22;;;9.20;18.10;;;;;;4982300;28;20250;-86
2022/03/02 09:52:26;;;;;;;7.88;6.53;;;8.50;19.20;;;;;;5091526;28;20215;-85
2022/03/02 09:54:55;;;;;;;12.13;7.18;;;8.20;19.60;;;;;;5086542;28;20225;-85
2022/03/02 09:57:24;;;;;;;10.55;6.97;;;8.00;19.60;;;;;;5090623;28;20288;-83
2022/03/02 09:59:53;;;;;;;10.30;6.70;;;8.30;19.90;;;;;;5081853;28;20308;-87
2022/03/02 10:02:36;;;;;;;10.90;6.43;;;8.40;19.40;;;;;;5075260;28;20196;-84
2022/03/02 10:05:06;;;;;;;15.43;6.45;;;8.30;20.10;;;;;;5074496;28;20720;-87
2022/03/02 10:07:37;;;;;;;8.45;6.43;;;8.20;20.20;;;;;;5077849;28;20204;-84
2022/03/02 10:10:10;;;;;;;11.23;6.55;;;8.00;20.40;;;;;;5075910;28;20220;-86
2022/03/02 10:12:39;;;;;;;10.38;6.82;;;8.00;22.20;;;;;;5077904;28;20200;-87
2022/03/02 10:16:33;;;;;;;;;;;;;;;;;;;;;
2022/03/02 10:56:08;;;;;;;8.52;5.80;;;9.80;15.60;;;;;;4999023;28;20245;-87
2022/03/02 10:58:36;;;;;;;10.27;5.70;;;8.80;17.30;;;;;;5067917;28;20309;-87
2022/03/02 11:01:04;;;;;;;8.15;5.40;;;9.00;18.90;;;;;;5074025;28;20225;-87
2022/03/02 11:03:55;;;;;;;9.95;6.10;;;9.20;17.50;;;;;;5073695;28;20194;-87
2022/03/02 11:06:24;;;;;;;9.38;5.75;;;8.90;18.50;;;;;;5068431;28;20226;-86
2022/03/02 11:08:56;;;;;;;7.45;5.78;;;8.80;18.90;;;;;;5074654;28;20224;-87
2022/03/02 11:11:26;;;;;;;8.32;5.57;;;8.80;19.00;;;;;;5068934;28;20226;-87
2022/03/02 11:13:55;;;;;;;12.00;5.88;;;8.70;18.80;;;;;;5067219;28;20197;-86
2022/03/02 11:16:32;;;;;;;8.15;5.38;;;9.10;19.00;;;;;;5076529;28;20242;-87
2022/03/02 11:19:12;;;;;;;11.43;5.28;;;9.60;19.20;;;;;;5079881;28;20189;-87
2022/03/02 11:21:41;;;;;;;8.05;5.72;;;9.10;18.50;;;;;;5074198;28;20228;-87
2022/03/02 11:24:09;;;;;;;9.18;5.22;;;9.20;18.20;;;;;;5065269;28;20202;-87
2022/03/02 11:26:41;;;;;;;10.40;5.57;;;9.40;17.10;;;;;;5066994;28;20245;-86
2022/03/02 11:29:12;;;;;;;11.30;6.13;;;9.00;17.70;;;;;;5066169;28;20553;-88
2022/03/02 11:31:44;;;;;;;9.65;5.38;;;8.80;18.50;;;;;;5072474;28;20224;-86
2022/03/02 11:34:15;;;;;;;8.05;5.72;;;8.60;18.30;;;;;;5066818;28;20277;-88
2022/03/02 11:36:47;;;;;;;9.00;5.45;;;8.50;18.60;;;;;;5064887;28;20312;-86
2022/03/02 11:39:15;;;;;;;9.23;5.72;;;8.50;18.30;;;;;;5067591;28;20209;-85
2022/03/02 11:41:44;;;;;;;9.00;5.50;;;8.70;17.60;;;;;;5070346;28;20198;-89
2022/03/02 11:44:27;;;;;;;11.60;5.22;;;8.90;17.00;;;;;;5064481;28;20293;-88
2022/03/02 11:47:02;;;;;;;9.43;5.38;;;8.90;17.00;;;;;;5060854;28;20244;-86
2022/03/02 11:49:47;;;;;;;9.43;5.25;;;9.20;16.30;;;;;;5061973;28;20236;-86
2022/03/02 11:52:17;;;;;;;12.73;5.60;;;9.30;16.40;;;;;;5072647;28;20197;-87
2022/03/02 11:54:47;;;;;;;7.25;5.20;;;8.90;16.70;;;;;;5069668;28;20225;-86
2022/03/02 11:57:15;;;;;;;10.70;5.35;;;8.70;17.00;;;;;;5065553;28;20217;-86
2022/03/02 11:59:46;;;;;;;7.32;4.70;;;8.60;17.60;;;;;;5062471;28;20580;-85
2022/03/02 12:02:18;;;;;;;7.80;5.65;;;9.10;17.90;;;;;;5066426;28;20209;-86
2022/03/02 12:05:01;;;;;;;9.98;4.90;;;9.30;17.10;;;;;;5073108;28;20561;-86
2022/03/02 12:07:38;;;;;;;9.80;5.32;;;9.30;16.10;;;;;;5072450;28;20201;-86
2022/03/02 12:10:15;;;;;;;7.72;5.20;;;9.40;15.30;;;;;;5070274;28;20251;-86
2022/03/02 12:12:46;;;;;;;9.15;5.05;;;9.10;15.90;;;;;;5073508;28;20200;-86
2022/03/02 12:15:13;;;;;;;5.80;4.68;;;8.60;15.40;;;;;;5073157;28;20225;-85
2022/03/02 12:17:41;;;;;;;6.25;5.05;;;8.70;16.20;;;;;;5057409;28;20216;-87
2022/03/02 12:20:13;;;;;;;7.57;5.20;;;8.50;16.80;;;;;;5075431;28;20577;-87
2022/03/02 12:22:46;;;;;;;10.20;5.45;;;8.40;17.10;;;;;;5072567;28;20264;-86
2022/03/02 12:25:18;;;;;;;8.88;5.25;;;8.30;17.40;;;;;;5053542;28;20325;-88
2022/03/02 12:27:58;;;;;;;7.20;5.18;;;8.60;19.90;;;;;;5067413;28;20650;-86
2022/03/02 12:30:29;;;;;;;7.30;5.07;;;8.80;16.70;;;;;;5066988;28;20240;-86
2022/03/02 12:32:57;;;;;;;6.78;4.93;;;8.90;17.80;;;;;;5067089;28;20201;-84
2022/03/02 12:35:28;;;;;;;10.38;5.10;;;8.90;16.60;;;;;;5066159;28;20243;-85
2022/03/02 12:37:59;;;;;;;5.75;4.53;;;9.00;15.90;;;;;;5070774;28;20223;-87
2022/03/02 12:40:31;;;;;;;7.55;5.38;;;9.10;16.40;;;;;;5077921;28;20220;-86
2022/03/02 12:43:05;;;;;;;8.70;5.57;;;8.80;16.60;;;;;;5057949;28;20565;-89
2022/03/02 12:45:42;;;;;;;6.72;5.55;;;8.60;17.30;;;;;;5056015;28;20251;-88
2022/03/02 12:48:11;;;;;;;12.55;5.80;;;8.70;18.10;;;;;;5059214;28;20224;-86
2022/03/02 12:50:40;;;;;;;9.10;5.63;;;8.60;18.20;;;;;;5067453;28;20274;-86
2022/03/02 12:53:08;;;;;;;9.73;5.70;;;8.60;18.30;;;;;;5062158;28;20280;-86
2022/03/02 12:55:55;;;;;;;9.55;5.70;;;8.50;19.30;;;;;;5063359;28;20245;-86
2022/03/02 12:58:24;;;;;;;14.30;8.05;;;8.30;19.90;;;;;;5055407;28;21408;-86
2022/03/02 13:00:56;;;;;;;8.07;5.90;;;8.10;20.90;;;;;;5055276;28;20221;-85
2022/03/02 13:03:29;;;;;;;10.00;6.50;;;8.20;23.80;;;;;;5067334;28;20197;-85
2022/03/02 13:06:06;;;;;;;7.18;6.03;;;8.20;20.70;;;;;;5059667;28;20227;-85
2022/03/02 13:08:38;;;;;;;8.27;6.10;;;8.20;21.40;;;;;;5072595;28;20283;-85
2022/03/02 13:11:05;;;;;;;8.55;6.25;;;8.20;21.10;;;;;;5072355;28;20316;-86
2022/03/02 13:13:35;;;;;;;10.30;6.03;;;8.10;21.50;;;;;;5038399;28;20702;-87
2022/03/02 13:16:19;;;;;;;10.38;5.70;;;8.20;21.70;;;;;;5070250;28;20221;-86
2022/03/02 13:18:49;;;;;;;13.95;5.90;;;8.10;22.30;;;;;;5069097;28;20197;-86
2022/03/02 13:21:36;;;;;;;13.38;6.85;;;8.10;23.60;;;;;;5081075;28;20692;-86
2022/03/02 13:24:13;;;;;;;10.45;6.40;;;8.10;23.70;;;;;;5065643;28;20304;-86
2022/03/02 13:27:08;;;;;;;8.75;6.30;;;8.10;23.60;;;;;;5071832;28;20227;-86
2022/03/02 13:30:17;;;;;;;13.85;6.95;;;8.10;23.70;;;;;;5078842;28;20225;-86
2022/03/02 13:33:25;;;;;;;8.18;6.50;;;8.10;23.60;;;;;;5072934;28;20633;-87
2022/03/02 13:35:58;;;;;;;10.25;6.68;;;8.10;23.60;;;;;;5078283;28;20229;-87
2022/03/02 13:38:44;;;;;;;14.80;8.18;;;8.00;23.50;;;;;;5076083;28;20222;-86
2022/03/02 13:41:40;;;;;;;9.98;6.97;;;8.10;23.70;;;;;;5068781;28;20224;-86
2022/03/02 13:44:22;;;;;;;7.90;6.55;;;7.90;23.50;;;;;;5080439;28;20567;-87
2022/03/02 13:47:17;;;;;;;13.07;7.20;;;7.80;23.50;;;;;;5080463;28;20193;-90
2022/03/02 13:50:18;;;;;;;14.60;8.23;;;7.90;23.50;;;;;;5074894;28;20768;-85
2022/03/02 13:53:10;;;;;;;12.65;7.63;;;7.70;24.20;;;;;;5072199;28;20205;-85
2022/03/02 13:55:39;;;;;;;10.25;7.90;;;7.70;25.00;;;;;;5086389;28;20571;-87
2022/03/02 13:58:28;;;;;;;13.40;7.57;;;7.70;25.50;;;;;;5087054;28;20303;-85
2022/03/02 14:01:19;;;;;;;11.20;7.22;;;7.50;27.10;;;;;;5082470;28;20234;-85
2022/03/02 14:04:11;;;;;;;18.23;8.30;;;7.50;26.70;;;;;;5070504;28;20220;-85
2022/03/02 14:06:40;;;;;;;11.25;7.72;;;7.40;27.30;;;;;;5086153;28;20201;-87
2022/03/02 14:09:09;;;;;;;11.73;7.97;;;7.30;27.30;;;;;;5086133;28;20200;-85
2022/03/02 14:11:40;;;;;;;15.63;8.88;;;7.20;27.40;;;;;;5093450;28;20288;-85
2022/03/02 14:14:10;;;;;;;16.65;7.82;;;7.10;28.90;;;;;;5088216;28;20225;-85
2022/03/02 14:16:38;;;;;;;13.18;8.25;;;7.10;28.00;;;;;;5075072;28;20676;-86
2022/03/02 14:19:09;;;;;;;14.05;8.25;;;7.10;28.00;;;;;;5076516;28;20715;-87
2022/03/02 14:21:37;;;;;;;9.70;8.20;;;7.10;28.40;;;;;;5073460;28;21296;-87
2022/03/02 14:24:17;;;;;;;16.50;8.60;;;7.00;28.50;;;;;;5067808;28;20211;-89
2022/03/02 14:27:20;;;;;;;10.30;8.15;;;7.00;28.30;;;;;;5074271;28;20209;-86
2022/03/02 14:30:07;;;;;;;14.88;8.38;;;7.00;28.20;;;;;;5073752;28;20277;-86
2022/03/02 14:32:36;;;;;;;11.40;7.20;;;7.00;28.20;;;;;;5071565;28;20247;-86
2022/03/02 14:35:13;;;;;;;14.73;8.35;;;7.00;28.30;;;;;;5075729;28;20229;-86
2022/03/02 14:37:43;;;;;;;13.45;8.45;;;6.90;28.90;;;;;;5076289;28;20688;-86
2022/03/02 14:40:18;;;;;;;16.48;9.15;;;6.80;28.80;;;;;;5077013;28;20217;-89
2022/03/02 14:42:53;;;;;;;15.52;8.93;;;6.80;29.00;;;;;;5077513;28;20224;-86
2022/03/02 14:45:26;;;;;;;13.45;8.88;;;6.80;28.60;;;;;;5055200;28;20229;-88
2022/03/02 14:47:59;;;;;;;18.17;8.43;;;6.70;29.60;;;;;;5072183;28;20220;-89
2022/03/02 14:50:36;;;;;;;11.97;8.30;;;6.80;28.60;;;;;;5080269;28;20251;-87
2022/03/02 14:53:08;;;;;;;13.60;7.90;;;6.80;28.50;;;;;;5066326;28;20289;-90
2022/03/02 14:56:04;;;;;;;11.85;8.50;;;6.80;29.10;;;;;;5079159;28;20217;-88
2022/03/02 14:58:41;;;;;;;14.63;8.73;;;6.60;29.50;;;;;;5078516;28;20683;-87
2022/03/02 15:01:32;;;;;;;14.40;8.75;;;6.60;29.40;;;;;;5083903;28;20225;-87
2022/03/02 15:04:24;;;;;;;12.50;8.60;;;6.60;29.70;;;;;;5093333;28;20192;-86
2022/03/02 15:07:00;;;;;;;15.00;8.77;;;6.50;29.50;;;;;;5072116;28;20213;-85
2022/03/02 15:09:27;;;;;;;16.02;8.77;;;6.60;29.40;;;;;;5073117;28;20237;-88
2022/03/02 15:11:54;;;;;;;10.87;8.33;;;6.70;29.70;;;;;;5083680;28;20227;-85
2022/03/02 15:17:21;;;;;;;14.37;9.00;;;6.60;29.60;;;;;;5073330;28;20235;-89
2022/03/02 15:20:04;;;;;;;17.53;9.37;;;6.50;30.00;;;;;;5073314;28;20247;-89
2022/03/02 15:22:32;;;;;;;11.80;8.85;;;6.50;29.40;;;;;;5067874;28;20280;-89